sensor_id;sensor_type;location;lat;lon;timestamp;temperature;humidity
71082;SHT31;58740;50.672;18.690;2022-09-21T00:01:31;10.76;78.51
71082;SHT31;58740;50.672;18.690;2022-09-21T00:04:00;10.73;78.55
71082;SHT31;58740;50.672;18.690;2022-09-21T00:06:30;10.72;78.61
71082;SHT31;58740;50.672;18.690;2022-09-21T00:09:01;10.71;78.54
71082;SHT31;58740;50.672;18.690;2022-09-21T00:11:31;10.68;78.56
71082;SHT31;58740;50.672;18.690;2022-09-21T00:14:03;10.65;78.60
71082;SHT31;58740;50.672;18.690;2022-09-21T00:16:36;10.63;78.60
71082;SHT31;58740;50.672;18.690;2022-09-21T00:19:07;10.63;78.56
71082;SHT31;58740;50.672;18.690;2022-09-21T00:21:37;10.60;78.55
71082;SHT31;58740;50.672;18.690;2022-09-21T00:24:05;10.58;78.57
71082;SHT31;58740;50.672;18.690;2022-09-21T00:26:34;10.56;78.60
71082;SHT31;58740;50.672;18.690;2022-09-21T00:29:02;10.51;78.61
71082;SHT31;58740;50.672;18.690;2022-09-21T00:31:31;10.47;78.68
71082;SHT31;58740;50.672;18.690;2022-09-21T00:33:59;10.47;78.71
71082;SHT31;58740;50.672;18.690;2022-09-21T00:36:30;10.50;78.69
71082;SHT31;58740;50.672;18.690;2022-09-21T00:38:58;10.52;78.59
71082;SHT31;58740;50.672;18.690;2022-09-21T00:41:30;10.49;78.63
71082;SHT31;58740;50.672;18.690;2022-09-21T00:46:46;10.43;78.70
71082;SHT31;58740;50.672;18.690;2022-09-21T00:49:17;10.40;78.70
71082;SHT31;58740;50.672;18.690;2022-09-21T00:51:47;10.36;78.73
71082;SHT31;58740;50.672;18.690;2022-09-21T00:54:22;10.34;78.71
71082;SHT31;58740;50.672;18.690;2022-09-21T00:56:56;10.31;78.79
71082;SHT31;58740;50.672;18.690;2022-09-21T00:59:30;10.29;78.83
71082;SHT31;58740;50.672;18.690;2022-09-21T01:02:04;10.29;78.81
71082;SHT31;58740;50.672;18.690;2022-09-21T01:04:32;10.26;78.83
71082;SHT31;58740;50.672;18.690;2022-09-21T01:07:01;10.22;78.88
71082;SHT31;58740;50.672;18.690;2022-09-21T01:09:38;10.19;78.95
71082;SHT31;58740;50.672;18.690;2022-09-21T01:21:14;10.12;78.96
71082;SHT31;58740;50.672;18.690;2022-09-21T01:26:51;10.06;79.04
71082;SHT31;58740;50.672;18.690;2022-09-21T01:32:27;10.00;79.10
71082;SHT31;58740;50.672;18.690;2022-09-21T01:35:12;9.98;79.10
71082;SHT31;58740;50.672;18.690;2022-09-21T01:40:48;9.94;79.20
71082;SHT31;58740;50.672;18.690;2022-09-21T01:43:37;9.93;79.20
71082;SHT31;58740;50.672;18.690;2022-09-21T01:46:15;9.89;79.21
71082;SHT31;58740;50.672;18.690;2022-09-21T01:48:51;9.89;79.20
71082;SHT31;58740;50.672;18.690;2022-09-21T01:51:26;9.88;79.25
71082;SHT31;58740;50.672;18.690;2022-09-21T01:54:00;9.90;79.31
71082;SHT31;58740;50.672;18.690;2022-09-21T01:56:43;9.90;79.34
71082;SHT31;58740;50.672;18.690;2022-09-21T01:59:21;9.90;79.43
71082;SHT31;58740;50.672;18.690;2022-09-21T02:01:59;9.89;79.56
71082;SHT31;58740;50.672;18.690;2022-09-21T02:04:39;9.88;79.68
71082;SHT31;58740;50.672;18.690;2022-09-21T02:07:08;9.89;79.72
71082;SHT31;58740;50.672;18.690;2022-09-21T02:09:35;9.91;79.70
71082;SHT31;58740;50.672;18.690;2022-09-21T02:12:04;9.93;79.81
71082;SHT31;58740;50.672;18.690;2022-09-21T02:14:32;9.96;79.82
71082;SHT31;58740;50.672;18.690;2022-09-21T02:17:13;9.97;79.80
71082;SHT31;58740;50.672;18.690;2022-09-21T02:20:12;9.98;79.80
71082;SHT31;58740;50.672;18.690;2022-09-21T02:22:56;9.96;79.91
71082;SHT31;58740;50.672;18.690;2022-09-21T02:25:51;9.97;79.96
71082;SHT31;58740;50.672;18.690;2022-09-21T02:31:29;10.02;79.98
71082;SHT31;58740;50.672;18.690;2022-09-21T02:34:33;10.05;79.97
71082;SHT31;58740;50.672;18.690;2022-09-21T02:37:21;10.06;79.94
71082;SHT31;58740;50.672;18.690;2022-09-21T02:40:34;10.03;80.04
71082;SHT31;58740;50.672;18.690;2022-09-21T02:43:18;10.03;80.15
71082;SHT31;58740;50.672;18.690;2022-09-21T02:45:55;10.06;80.10
71082;SHT31;58740;50.672;18.690;2022-09-21T02:48:34;10.08;80.11
71082;SHT31;58740;50.672;18.690;2022-09-21T02:51:10;10.12;80.09
71082;SHT31;58740;50.672;18.690;2022-09-21T02:53:44;10.14;80.10
71082;SHT31;58740;50.672;18.690;2022-09-21T02:56:15;10.13;80.12
71082;SHT31;58740;50.672;18.690;2022-09-21T02:58:47;10.11;80.12
71082;SHT31;58740;50.672;18.690;2022-09-21T03:01:21;10.10;80.16
71082;SHT31;58740;50.672;18.690;2022-09-21T03:03:52;10.11;80.11
71082;SHT31;58740;50.672;18.690;2022-09-21T03:06:20;10.13;80.16
71082;SHT31;58740;50.672;18.690;2022-09-21T03:08:48;10.16;80.11
71082;SHT31;58740;50.672;18.690;2022-09-21T03:11:16;10.18;80.11
71082;SHT31;58740;50.672;18.690;2022-09-21T03:13:46;10.18;80.13
71082;SHT31;58740;50.672;18.690;2022-09-21T03:16:13;10.16;80.16
71082;SHT31;58740;50.672;18.690;2022-09-21T03:18:41;10.13;80.27
71082;SHT31;58740;50.672;18.690;2022-09-21T03:21:10;10.11;80.34
71082;SHT31;58740;50.672;18.690;2022-09-21T03:23:39;10.10;80.38
71082;SHT31;58740;50.672;18.690;2022-09-21T03:26:07;10.10;80.31
71082;SHT31;58740;50.672;18.690;2022-09-21T03:28:34;10.10;80.37
71082;SHT31;58740;50.672;18.690;2022-09-21T03:31:02;10.11;80.40
71082;SHT31;58740;50.672;18.690;2022-09-21T03:33:30;10.10;80.41
71082;SHT31;58740;50.672;18.690;2022-09-21T03:35:57;10.10;80.47
71082;SHT31;58740;50.672;18.690;2022-09-21T03:38:25;10.08;80.51
71082;SHT31;58740;50.672;18.690;2022-09-21T03:40:53;10.07;80.51
71082;SHT31;58740;50.672;18.690;2022-09-21T03:43:24;10.07;80.53
71082;SHT31;58740;50.672;18.690;2022-09-21T03:45:52;10.07;80.63
71082;SHT31;58740;50.672;18.690;2022-09-21T03:48:20;10.09;80.65
71082;SHT31;58740;50.672;18.690;2022-09-21T03:50:48;10.11;80.61
71082;SHT31;58740;50.672;18.690;2022-09-21T03:53:16;10.12;80.60
71082;SHT31;58740;50.672;18.690;2022-09-21T03:55:44;10.10;80.61
71082;SHT31;58740;50.672;18.690;2022-09-21T03:58:11;10.06;80.67
71082;SHT31;58740;50.672;18.690;2022-09-21T04:00:39;10.03;80.77
71082;SHT31;58740;50.672;18.690;2022-09-21T04:03:07;10.02;80.79
71082;SHT31;58740;50.672;18.690;2022-09-21T04:05:35;10.03;80.83
71082;SHT31;58740;50.672;18.690;2022-09-21T04:08:05;10.04;80.91
71082;SHT31;58740;50.672;18.690;2022-09-21T04:10:33;10.06;80.87
71082;SHT31;58740;50.672;18.690;2022-09-21T04:13:01;10.05;80.89
71082;SHT31;58740;50.672;18.690;2022-09-21T04:15:30;10.02;80.96
71082;SHT31;58740;50.672;18.690;2022-09-21T04:17:58;10.02;81.00
71082;SHT31;58740;50.672;18.690;2022-09-21T04:20:25;10.04;81.01
71082;SHT31;58740;50.672;18.690;2022-09-21T04:22:53;10.04;81.01
71082;SHT31;58740;50.672;18.690;2022-09-21T04:25:21;10.04;81.01
71082;SHT31;58740;50.672;18.690;2022-09-21T04:27:48;10.02;81.00
71082;SHT31;58740;50.672;18.690;2022-09-21T04:30:17;9.99;81.12
71082;SHT31;58740;50.672;18.690;2022-09-21T04:32:45;10.00;81.20
71082;SHT31;58740;50.672;18.690;2022-09-21T04:35:12;10.01;81.15
71082;SHT31;58740;50.672;18.690;2022-09-21T04:37:40;10.04;81.19
71082;SHT31;58740;50.672;18.690;2022-09-21T04:40:08;10.05;81.18
71082;SHT31;58740;50.672;18.690;2022-09-21T04:42:36;10.06;81.21
71082;SHT31;58740;50.672;18.690;2022-09-21T04:45:04;10.09;81.19
71082;SHT31;58740;50.672;18.690;2022-09-21T04:47:32;10.08;81.19
71082;SHT31;58740;50.672;18.690;2022-09-21T04:49:59;10.08;81.26
71082;SHT31;58740;50.672;18.690;2022-09-21T04:52:27;10.07;81.29
71082;SHT31;58740;50.672;18.690;2022-09-21T04:54:54;10.08;81.23
71082;SHT31;58740;50.672;18.690;2022-09-21T04:57:22;10.09;81.25
71082;SHT31;58740;50.672;18.690;2022-09-21T04:59:51;10.09;81.24
71082;SHT31;58740;50.672;18.690;2022-09-21T05:02:18;10.06;81.26
71082;SHT31;58740;50.672;18.690;2022-09-21T05:04:46;10.04;81.41
71082;SHT31;58740;50.672;18.690;2022-09-21T05:07:17;10.05;81.46
71082;SHT31;58740;50.672;18.690;2022-09-21T05:09:45;10.06;81.50
71082;SHT31;58740;50.672;18.690;2022-09-21T05:12:31;10.08;81.48
71082;SHT31;58740;50.672;18.690;2022-09-21T05:15:06;10.10;81.43
71082;SHT31;58740;50.672;18.690;2022-09-21T05:17:35;10.13;81.35
71082;SHT31;58740;50.672;18.690;2022-09-21T05:20:02;10.15;81.30
71082;SHT31;58740;50.672;18.690;2022-09-21T05:22:31;10.15;81.30
71082;SHT31;58740;50.672;18.690;2022-09-21T05:24:58;10.14;81.33
71082;SHT31;58740;50.672;18.690;2022-09-21T05:27:26;10.13;81.36
71082;SHT31;58740;50.672;18.690;2022-09-21T05:29:54;10.13;81.40
71082;SHT31;58740;50.672;18.690;2022-09-21T05:35:17;10.16;81.40
71082;SHT31;58740;50.672;18.690;2022-09-21T05:40:47;10.21;81.32
71082;SHT31;58740;50.672;18.690;2022-09-21T05:43:16;10.21;81.41
71082;SHT31;58740;50.672;18.690;2022-09-21T05:45:45;10.19;81.46
71082;SHT31;58740;50.672;18.690;2022-09-21T05:48:20;10.20;81.47
71082;SHT31;58740;50.672;18.690;2022-09-21T05:51:06;10.21;81.40
71082;SHT31;58740;50.672;18.690;2022-09-21T05:54:05;10.25;81.44
71082;SHT31;58740;50.672;18.690;2022-09-21T06:00:19;10.25;81.53
71082;SHT31;58740;50.672;18.690;2022-09-21T06:02:53;10.22;81.55
71082;SHT31;58740;50.672;18.690;2022-09-21T06:05:34;10.23;81.58
71082;SHT31;58740;50.672;18.690;2022-09-21T06:08:02;10.24;81.51
71082;SHT31;58740;50.672;18.690;2022-09-21T06:10:31;10.26;81.45
71082;SHT31;58740;50.672;18.690;2022-09-21T06:13:01;10.24;81.42
71082;SHT31;58740;50.672;18.690;2022-09-21T06:15:29;10.26;81.49
71082;SHT31;58740;50.672;18.690;2022-09-21T06:17:57;10.24;81.57
71082;SHT31;58740;50.672;18.690;2022-09-21T06:20:25;10.25;81.64
71082;SHT31;58740;50.672;18.690;2022-09-21T06:22:58;10.24;81.66
71082;SHT31;58740;50.672;18.690;2022-09-21T06:25:32;10.24;81.70
71082;SHT31;58740;50.672;18.690;2022-09-21T06:28:03;10.25;81.76
71082;SHT31;58740;50.672;18.690;2022-09-21T06:30:38;10.29;81.77
71082;SHT31;58740;50.672;18.690;2022-09-21T06:33:08;10.33;81.69
71082;SHT31;58740;50.672;18.690;2022-09-21T06:35:36;10.34;81.73
71082;SHT31;58740;50.672;18.690;2022-09-21T06:38:05;10.35;81.75
71082;SHT31;58740;50.672;18.690;2022-09-21T06:40:34;10.35;81.78
71082;SHT31;58740;50.672;18.690;2022-09-21T06:43:04;10.37;81.81
71082;SHT31;58740;50.672;18.690;2022-09-21T06:45:32;10.41;81.84
71082;SHT31;58740;50.672;18.690;2022-09-21T06:48:00;10.44;81.83
71082;SHT31;58740;50.672;18.690;2022-09-21T06:50:28;10.45;81.91
71082;SHT31;58740;50.672;18.690;2022-09-21T06:52:58;10.46;81.90
71082;SHT31;58740;50.672;18.690;2022-09-21T06:55:27;10.48;81.90
71082;SHT31;58740;50.672;18.690;2022-09-21T06:57:59;10.49;82.02
71082;SHT31;58740;50.672;18.690;2022-09-21T07:00:29;10.49;81.96
71082;SHT31;58740;50.672;18.690;2022-09-21T07:02:58;10.52;81.90
71082;SHT31;58740;50.672;18.690;2022-09-21T07:05:26;10.52;81.96
71082;SHT31;58740;50.672;18.690;2022-09-21T07:07:56;10.55;81.97
71082;SHT31;58740;50.672;18.690;2022-09-21T07:10:25;10.56;81.97
71082;SHT31;58740;50.672;18.690;2022-09-21T07:12:53;10.57;81.91
71082;SHT31;58740;50.672;18.690;2022-09-21T07:15:20;10.59;82.03
71082;SHT31;58740;50.672;18.690;2022-09-21T07:17:49;10.62;82.00
71082;SHT31;58740;50.672;18.690;2022-09-21T07:20:18;10.66;81.90
71082;SHT31;58740;50.672;18.690;2022-09-21T07:22:46;10.71;81.87
71082;SHT31;58740;50.672;18.690;2022-09-21T07:25:14;10.76;81.89
71082;SHT31;58740;50.672;18.690;2022-09-21T07:27:42;10.75;81.89
71082;SHT31;58740;50.672;18.690;2022-09-21T07:30:10;10.75;81.85
71082;SHT31;58740;50.672;18.690;2022-09-21T07:32:38;10.76;81.78
71082;SHT31;58740;50.672;18.690;2022-09-21T07:35:05;10.76;81.75
71082;SHT31;58740;50.672;18.690;2022-09-21T07:37:33;10.80;81.70
71082;SHT31;58740;50.672;18.690;2022-09-21T07:40:01;10.83;81.61
71082;SHT31;58740;50.672;18.690;2022-09-21T07:42:32;10.86;81.61
71082;SHT31;58740;50.672;18.690;2022-09-21T07:44:59;10.89;81.61
71082;SHT31;58740;50.672;18.690;2022-09-21T07:47:31;10.90;81.50
71082;SHT31;58740;50.672;18.690;2022-09-21T07:49:59;10.91;81.49
71082;SHT31;58740;50.672;18.690;2022-09-21T07:52:26;10.91;81.39
71082;SHT31;58740;50.672;18.690;2022-09-21T07:54:54;10.92;81.37
71082;SHT31;58740;50.672;18.690;2022-09-21T07:57:22;10.94;81.31
71082;SHT31;58740;50.672;18.690;2022-09-21T08:00:08;10.98;81.23
71082;SHT31;58740;50.672;18.690;2022-09-21T08:02:37;10.99;81.19
71082;SHT31;58740;50.672;18.690;2022-09-21T08:05:10;10.97;81.21
71082;SHT31;58740;50.672;18.690;2022-09-21T08:07:37;10.95;81.28
71082;SHT31;58740;50.672;18.690;2022-09-21T08:10:05;10.94;81.37
71082;SHT31;58740;50.672;18.690;2022-09-21T08:12:33;10.94;81.40
71082;SHT31;58740;50.672;18.690;2022-09-21T08:15:01;10.99;81.40
71082;SHT31;58740;50.672;18.690;2022-09-21T08:17:29;11.00;81.42
71082;SHT31;58740;50.672;18.690;2022-09-21T08:19:57;11.02;81.39
71082;SHT31;58740;50.672;18.690;2022-09-21T08:22:25;11.05;81.37
71082;SHT31;58740;50.672;18.690;2022-09-21T08:24:52;11.06;81.47
71082;SHT31;58740;50.672;18.690;2022-09-21T08:27:22;11.06;81.43
71082;SHT31;58740;50.672;18.690;2022-09-21T08:29:51;11.06;81.51
71082;SHT31;58740;50.672;18.690;2022-09-21T08:32:19;11.09;81.61
71082;SHT31;58740;50.672;18.690;2022-09-21T08:35:07;11.10;81.69
71082;SHT31;58740;50.672;18.690;2022-09-21T08:37:35;11.12;81.71
71082;SHT31;58740;50.672;18.690;2022-09-21T08:40:04;11.13;81.79
71082;SHT31;58740;50.672;18.690;2022-09-21T08:42:37;11.15;81.81
71082;SHT31;58740;50.672;18.690;2022-09-21T08:45:33;11.20;81.95
71082;SHT31;58740;50.672;18.690;2022-09-21T08:48:25;11.24;81.99
71082;SHT31;58740;50.672;18.690;2022-09-21T08:51:03;11.28;81.95
71082;SHT31;58740;50.672;18.690;2022-09-21T08:53:43;11.30;81.89
71082;SHT31;58740;50.672;18.690;2022-09-21T08:56:16;11.32;82.03
71082;SHT31;58740;50.672;18.690;2022-09-21T08:58:44;11.35;82.02
71082;SHT31;58740;50.672;18.690;2022-09-21T09:01:20;11.40;81.96
71082;SHT31;58740;50.672;18.690;2022-09-21T09:04:03;11.45;81.84
71082;SHT31;58740;50.672;18.690;2022-09-21T09:18:50;11.61;81.61
71082;SHT31;58740;50.672;18.690;2022-09-21T09:21:26;11.64;81.59
71082;SHT31;58740;50.672;18.690;2022-09-21T09:24:20;11.68;81.62
71082;SHT31;58740;50.672;18.690;2022-09-21T09:27:13;11.74;81.68
71082;SHT31;58740;50.672;18.690;2022-09-21T09:29:58;11.78;81.72
71082;SHT31;58740;50.672;18.690;2022-09-21T09:32:58;11.83;81.70
71082;SHT31;58740;50.672;18.690;2022-09-21T09:35:47;11.89;81.65
71082;SHT31;58740;50.672;18.690;2022-09-21T09:38:30;11.94;81.44
71082;SHT31;58740;50.672;18.690;2022-09-21T09:50:38;12.24;81.03
71082;SHT31;58740;50.672;18.690;2022-09-21T09:53:10;12.31;80.92
71082;SHT31;58740;50.672;18.690;2022-09-21T09:55:47;12.37;80.79
71082;SHT31;58740;50.672;18.690;2022-09-21T10:01:34;12.48;80.19
71082;SHT31;58740;50.672;18.690;2022-09-21T10:04:10;12.52;80.21
71082;SHT31;58740;50.672;18.690;2022-09-21T10:06:41;12.58;80.08
71082;SHT31;58740;50.672;18.690;2022-09-21T10:09:17;12.59;80.03
71082;SHT31;58740;50.672;18.690;2022-09-21T10:11:49;12.61;79.90
71082;SHT31;58740;50.672;18.690;2022-09-21T10:14:21;12.64;79.69
71082;SHT31;58740;50.672;18.690;2022-09-21T10:16:53;12.65;79.39
71082;SHT31;58740;50.672;18.690;2022-09-21T10:19:26;12.67;79.34
71082;SHT31;58740;50.672;18.690;2022-09-21T10:21:59;12.73;79.28
71082;SHT31;58740;50.672;18.690;2022-09-21T10:24:30;12.78;79.20
71082;SHT31;58740;50.672;18.690;2022-09-21T10:27:05;12.84;78.97
71082;SHT31;58740;50.672;18.690;2022-09-21T10:29:45;12.91;78.74
71082;SHT31;58740;50.672;18.690;2022-09-21T10:38:07;12.98;78.23
71082;SHT31;58740;50.672;18.690;2022-09-21T10:40:49;12.97;78.08
71082;SHT31;58740;50.672;18.690;2022-09-21T10:43:24;13.03;77.99
71082;SHT31;58740;50.672;18.690;2022-09-21T10:46:05;13.12;78.03
71082;SHT31;58740;50.672;18.690;2022-09-21T10:48:32;13.21;77.65
71082;SHT31;58740;50.672;18.690;2022-09-21T10:51:01;13.24;77.33
71082;SHT31;58740;50.672;18.690;2022-09-21T10:53:31;13.29;77.24
71082;SHT31;58740;50.672;18.690;2022-09-21T10:56:14;13.33;77.24
71082;SHT31;58740;50.672;18.690;2022-09-21T11:01:46;13.43;76.37
71082;SHT31;58740;50.672;18.690;2022-09-21T11:11:02;13.68;74.38
71082;SHT31;58740;50.672;18.690;2022-09-21T11:13:46;13.63;74.60
71082;SHT31;58740;50.672;18.690;2022-09-21T11:16:30;13.58;74.41
71082;SHT31;58740;50.672;18.690;2022-09-21T11:19:19;13.56;73.99
71082;SHT31;58740;50.672;18.690;2022-09-21T11:22:05;13.55;73.69
71082;SHT31;58740;50.672;18.690;2022-09-21T11:24:51;13.55;73.81
71082;SHT31;58740;50.672;18.690;2022-09-21T11:27:46;13.56;73.64
71082;SHT31;58740;50.672;18.690;2022-09-21T11:30:24;13.61;73.83
71082;SHT31;58740;50.672;18.690;2022-09-21T11:33:18;13.70;73.02
71082;SHT31;58740;50.672;18.690;2022-09-21T11:39:11;13.73;72.27
71082;SHT31;58740;50.672;18.690;2022-09-21T11:42:30;13.74;72.33
71082;SHT31;58740;50.672;18.690;2022-09-21T11:45:44;13.73;72.35
71082;SHT31;58740;50.672;18.690;2022-09-21T12:17:16;14.07;70.78
71082;SHT31;58740;50.672;18.690;2022-09-21T12:20:19;14.01;70.06
71082;SHT31;58740;50.672;18.690;2022-09-21T12:23:01;13.91;70.29
71082;SHT31;58740;50.672;18.690;2022-09-21T12:25:40;13.86;70.74
71082;SHT31;58740;50.672;18.690;2022-09-21T12:28:23;13.86;70.95
71082;SHT31;58740;50.672;18.690;2022-09-21T12:31:05;13.85;70.81
71082;SHT31;58740;50.672;18.690;2022-09-21T12:33:54;13.81;70.62
71082;SHT31;58740;50.672;18.690;2022-09-21T12:36:32;13.75;70.44
71082;SHT31;58740;50.672;18.690;2022-09-21T12:42:04;13.65;71.00
71082;SHT31;58740;50.672;18.690;2022-09-21T12:44:51;13.63;71.39
71082;SHT31;58740;50.672;18.690;2022-09-21T12:50:41;13.62;71.16
71082;SHT31;58740;50.672;18.690;2022-09-21T12:53:18;13.62;70.99
71082;SHT31;58740;50.672;18.690;2022-09-21T13:08:10;13.78;68.73
71082;SHT31;58740;50.672;18.690;2022-09-21T13:15:58;13.79;68.35
71082;SHT31;58740;50.672;18.690;2022-09-21T13:18:28;13.81;68.46
71082;SHT31;58740;50.672;18.690;2022-09-21T13:21:16;13.84;68.71
71082;SHT31;58740;50.672;18.690;2022-09-21T13:23:54;13.87;69.34
71082;SHT31;58740;50.672;18.690;2022-09-21T13:27:04;13.92;69.62
71082;SHT31;58740;50.672;18.690;2022-09-21T13:29:35;13.97;69.60
71082;SHT31;58740;50.672;18.690;2022-09-21T13:34:41;14.00;67.39
71082;SHT31;58740;50.672;18.690;2022-09-21T13:37:33;13.99;67.25
71082;SHT31;58740;50.672;18.690;2022-09-21T13:47:41;13.92;67.10
71082;SHT31;58740;50.672;18.690;2022-09-21T13:53:22;13.83;67.30
71082;SHT31;58740;50.672;18.690;2022-09-21T13:56:08;13.84;67.37
71082;SHT31;58740;50.672;18.690;2022-09-21T13:58:51;13.86;67.43
71082;SHT31;58740;50.672;18.690;2022-09-21T14:01:28;13.91;67.39
71082;SHT31;58740;50.672;18.690;2022-09-21T14:04:23;13.95;67.79
71082;SHT31;58740;50.672;18.690;2022-09-21T14:06:55;13.99;67.89
71082;SHT31;58740;50.672;18.690;2022-09-21T14:11:58;14.08;68.17
71082;SHT31;58740;50.672;18.690;2022-09-21T14:14:33;14.13;68.45
71082;SHT31;58740;50.672;18.690;2022-09-21T14:17:32;14.18;67.55
71082;SHT31;58740;50.672;18.690;2022-09-21T14:20:27;14.21;67.91
71082;SHT31;58740;50.672;18.690;2022-09-21T14:25:50;14.15;68.35
71082;SHT31;58740;50.672;18.690;2022-09-21T14:31:28;13.94;69.31
71082;SHT31;58740;50.672;18.690;2022-09-21T14:34:09;13.86;70.60
71082;SHT31;58740;50.672;18.690;2022-09-21T14:36:45;13.80;71.70
71082;SHT31;58740;50.672;18.690;2022-09-21T14:39:18;13.75;72.27
71082;SHT31;58740;50.672;18.690;2022-09-21T14:41:52;13.72;72.86
71082;SHT31;58740;50.672;18.690;2022-09-21T14:44:26;13.65;73.25
71082;SHT31;58740;50.672;18.690;2022-09-21T14:50:06;13.50;73.88
71082;SHT31;58740;50.672;18.690;2022-09-21T14:53:31;13.41;74.19
71082;SHT31;58740;50.672;18.690;2022-09-21T14:56:32;13.35;74.45
71082;SHT31;58740;50.672;18.690;2022-09-21T14:59:19;13.33;74.44
71082;SHT31;58740;50.672;18.690;2022-09-21T15:02:10;13.30;74.32
71082;SHT31;58740;50.672;18.690;2022-09-21T15:04:59;13.26;74.14
71082;SHT31;58740;50.672;18.690;2022-09-21T15:08:08;13.22;74.10
71082;SHT31;58740;50.672;18.690;2022-09-21T15:11:23;13.15;73.87
71082;SHT31;58740;50.672;18.690;2022-09-21T15:14:07;13.11;73.56
71082;SHT31;58740;50.672;18.690;2022-09-21T15:16:59;13.06;73.60
71082;SHT31;58740;50.672;18.690;2022-09-21T15:19:34;13.02;73.43
71082;SHT31;58740;50.672;18.690;2022-09-21T15:24:53;13.00;73.56
71082;SHT31;58740;50.672;18.690;2022-09-21T15:27:25;12.99;73.47
71082;SHT31;58740;50.672;18.690;2022-09-21T15:30:03;12.98;73.46
71082;SHT31;58740;50.672;18.690;2022-09-21T15:32:45;12.95;73.26
71082;SHT31;58740;50.672;18.690;2022-09-21T15:35:21;12.91;73.08
71082;SHT31;58740;50.672;18.690;2022-09-21T15:37:56;12.89;73.45
71082;SHT31;58740;50.672;18.690;2022-09-21T15:40:33;12.85;73.42
71082;SHT31;58740;50.672;18.690;2022-09-21T15:45:53;12.79;73.30
71082;SHT31;58740;50.672;18.690;2022-09-21T15:48:26;12.77;73.12
71082;SHT31;58740;50.672;18.690;2022-09-21T15:51:15;12.75;73.46
71082;SHT31;58740;50.672;18.690;2022-09-21T15:54:04;12.73;73.35
71082;SHT31;58740;50.672;18.690;2022-09-21T15:57:00;12.71;73.36
71082;SHT31;58740;50.672;18.690;2022-09-21T15:59:35;12.66;73.51
71082;SHT31;58740;50.672;18.690;2022-09-21T16:02:15;12.62;73.70
71082;SHT31;58740;50.672;18.690;2022-09-21T16:04:49;12.60;73.94
71082;SHT31;58740;50.672;18.690;2022-09-21T16:07:32;12.58;74.07
71082;SHT31;58740;50.672;18.690;2022-09-21T16:13:18;12.56;74.30
71082;SHT31;58740;50.672;18.690;2022-09-21T16:16:12;12.54;74.25
71082;SHT31;58740;50.672;18.690;2022-09-21T16:18:45;12.53;74.35
71082;SHT31;58740;50.672;18.690;2022-09-21T16:21:32;12.49;74.51
71082;SHT31;58740;50.672;18.690;2022-09-21T16:24:17;12.45;74.69
71082;SHT31;58740;50.672;18.690;2022-09-21T16:26:56;12.40;74.92
71082;SHT31;58740;50.672;18.690;2022-09-21T16:29:41;12.36;74.93
71082;SHT31;58740;50.672;18.690;2022-09-21T16:34:46;12.30;75.38
71082;SHT31;58740;50.672;18.690;2022-09-21T16:39:51;12.20;75.79
71082;SHT31;58740;50.672;18.690;2022-09-21T16:42:21;12.16;75.84
71082;SHT31;58740;50.672;18.690;2022-09-21T16:44:52;12.09;76.05
71082;SHT31;58740;50.672;18.690;2022-09-21T16:47:21;12.05;76.13
71082;SHT31;58740;50.672;18.690;2022-09-21T16:49:53;12.04;76.08
71082;SHT31;58740;50.672;18.690;2022-09-21T16:52:27;12.03;76.13
71082;SHT31;58740;50.672;18.690;2022-09-21T16:54:56;12.04;76.19
71082;SHT31;58740;50.672;18.690;2022-09-21T16:57:25;12.03;76.21
71082;SHT31;58740;50.672;18.690;2022-09-21T16:59:52;12.00;76.32
71082;SHT31;58740;50.672;18.690;2022-09-21T17:02:20;11.98;76.47
71082;SHT31;58740;50.672;18.690;2022-09-21T17:04:48;11.95;76.42
71082;SHT31;58740;50.672;18.690;2022-09-21T17:07:16;11.94;76.38
71082;SHT31;58740;50.672;18.690;2022-09-21T17:09:46;11.92;76.44
71082;SHT31;58740;50.672;18.690;2022-09-21T17:12:15;11.89;76.56
71082;SHT31;58740;50.672;18.690;2022-09-21T17:14:44;11.87;76.67
71082;SHT31;58740;50.672;18.690;2022-09-21T17:17:18;11.82;76.78
71082;SHT31;58740;50.672;18.690;2022-09-21T17:19:50;11.78;76.76
71082;SHT31;58740;50.672;18.690;2022-09-21T17:22:20;11.75;76.80
71082;SHT31;58740;50.672;18.690;2022-09-21T17:24:49;11.73;76.95
71082;SHT31;58740;50.672;18.690;2022-09-21T17:27:19;11.74;77.03
71082;SHT31;58740;50.672;18.690;2022-09-21T17:29:51;11.74;77.09
71082;SHT31;58740;50.672;18.690;2022-09-21T17:32:21;11.73;77.07
71082;SHT31;58740;50.672;18.690;2022-09-21T17:34:56;11.68;77.13
71082;SHT31;58740;50.672;18.690;2022-09-21T17:37:40;11.63;77.29
71082;SHT31;58740;50.672;18.690;2022-09-21T17:40:08;11.62;77.38
71082;SHT31;58740;50.672;18.690;2022-09-21T17:42:38;11.61;77.39
71082;SHT31;58740;50.672;18.690;2022-09-21T17:45:25;11.60;77.38
71082;SHT31;58740;50.672;18.690;2022-09-21T17:48:17;11.61;77.39
71082;SHT31;58740;50.672;18.690;2022-09-21T17:50:47;11.63;77.22
71082;SHT31;58740;50.672;18.690;2022-09-21T17:53:17;11.64;77.13
71082;SHT31;58740;50.672;18.690;2022-09-21T17:56:11;11.63;77.00
71082;SHT31;58740;50.672;18.690;2022-09-21T17:59:00;11.60;76.99
71082;SHT31;58740;50.672;18.690;2022-09-21T18:01:35;11.59;77.04
71082;SHT31;58740;50.672;18.690;2022-09-21T18:04:06;11.57;77.00
71082;SHT31;58740;50.672;18.690;2022-09-21T18:06:39;11.56;77.09
71082;SHT31;58740;50.672;18.690;2022-09-21T18:09:08;11.55;77.15
71082;SHT31;58740;50.672;18.690;2022-09-21T18:25:53;11.46;77.15
71082;SHT31;58740;50.672;18.690;2022-09-21T18:31:22;11.47;77.20
71082;SHT31;58740;50.672;18.690;2022-09-21T18:40:38;11.42;77.22
71082;SHT31;58740;50.672;18.690;2022-09-21T18:46:21;11.41;77.32
71082;SHT31;58740;50.672;18.690;2022-09-21T18:49:47;11.44;77.26
71082;SHT31;58740;50.672;18.690;2022-09-21T18:55:06;11.45;77.47
71082;SHT31;58740;50.672;18.690;2022-09-21T18:58:03;11.46;77.50
71082;SHT31;58740;50.672;18.690;2022-09-21T19:00:31;11.46;77.53
71082;SHT31;58740;50.672;18.690;2022-09-21T19:03:03;11.46;77.66
71082;SHT31;58740;50.672;18.690;2022-09-21T19:15:29;11.54;77.56
71082;SHT31;58740;50.672;18.690;2022-09-21T19:24:13;11.48;77.76
71082;SHT31;58740;50.672;18.690;2022-09-21T19:27:14;11.47;77.73
71082;SHT31;58740;50.672;18.690;2022-09-21T19:30:10;11.46;77.73
71082;SHT31;58740;50.672;18.690;2022-09-21T19:35:14;11.48;77.91
71082;SHT31;58740;50.672;18.690;2022-09-21T19:37:45;11.48;77.95
71082;SHT31;58740;50.672;18.690;2022-09-21T19:40:18;11.47;78.00
71082;SHT31;58740;50.672;18.690;2022-09-21T19:48:53;11.54;77.94
71082;SHT31;58740;50.672;18.690;2022-09-21T19:54:30;11.59;78.11